Home > Products > Valid Products > TAF

000
FTUS43 KDVN 222100 AAB
TAFMLI
TAF AMD
KMLI 222136Z 2222/2318 11011KT 3SM -RA BR OVC005
     FM230200 10010KT 1SM RA BR BKN004 OVC020
     FM231400 22009KT 4SM BR OVC010=



000
FTUS43 KDVN 222100 AAB
TAFBRL
TAF AMD
KBRL 222136Z 2222/2318 14011KT 1/2SM FG OVC002
     FM230000 10010KT 1SM RA BR OVC003
     FM231100 21009KT 4SM BR OVC009=



000
FTUS43 KDVN 222100 AAC
TAFCID
TAF AMD
KCID 222136Z 2222/2318 12011KT 1SM BR OVC004
     FM230300 09012KT 1SM RA BR OVC004
     FM231400 21008KT 4SM BR SCT004 OVC009=



000
FTUS43 KDVN 222100 AAB
TAFDBQ
TAF AMD
KDBQ 222102Z 2221/2318 10010KT 4SM -RA BR SCT007 OVC012
      TEMPO 2221/2222 2SM -RA BR OVC005
     FM230300 09012KT 2SM RA BR OVC006
     FM231400 18010KT 4SM BR SCT006 OVC009=



000
FTUS43 KDVN 222100 CCA
TAFDBQ
TAF COR
KDBQ 222102Z 2221/2318 10010KT 4SM -RA BR SCT007 OVC012
      TEMPO 2221/2223 2SM -RA BR OVC005
     FM230300 09012KT 2SM RA BR OVC006
     FM231400 18010KT 4SM BR SCT006 OVC009=



000
FTUS43 KDVN 222000 AAA
TAFBRL
TAF AMD
KBRL 222037Z 2221/2318 14011KT 2SM BR OVC003
     FM230000 10010KT 1SM RA BR OVC003
     FM231100 21009KT 4SM BR OVC009=



000
FTUS43 KDVN 222000 AAB
TAFCID
TAF AMD
KCID 222011Z 2220/2318 12011KT 2SM -RA BR OVC005
     FM230300 09012KT 1SM RA BR OVC004
     FM231400 21008KT 4SM BR SCT004 OVC009=



000
FTUS43 KDVN 221900 AAA
TAFDBQ
TAF AMD
KDBQ 221927Z 2219/2318 10010KT 4SM -RA BR SCT007 OVC012
      TEMPO 2219/2222 2SM -RA BR OVC009
     FM230300 09012KT 2SM RA BR OVC006
     FM231400 18010KT 4SM BR SCT006 OVC009=



000
FTUS43 KDVN 221800 AAA
TAFCID
TAF AMD
KCID 221849Z 2219/2318 12011KT 3SM -RA BR BKN007 OVC012
      TEMPO 2219/2221 1SM -RA BR
     FM230300 09012KT 1SM RA BR OVC004
     FM231400 21008KT 4SM BR SCT004 OVC009=



000
FTUS43 KDVN 221700 AAA
TAFMLI
TAF AMD
KMLI 221758Z 2218/2318 11011KT 3SM -RA BR OVC009
      TEMPO 2218/2222 1SM -RA BR
     FM230200 10010KT 1SM RA BR BKN004 OVC020
     FM231400 22009KT 4SM BR OVC010=



000
FTUS43 KDVN 221700 CCA
TAFCID
TAF COR
KCID 221741Z 2218/2318 12011KT 3SM -RA BR BKN007 OVC012
     FM230300 09012KT 1SM RA BR OVC004
     FM231400 21008KT 4SM BR SCT004 OVC009=



000
FTUS43 KDVN 221700
TAFMLI
TAF
KMLI 221730Z 2218/2318 11011KT 3SM -RA BR OVC009
     FM230200 10010KT 1SM RA BR BKN004 OVC020
     FM231400 22009KT 4SM BR OVC010=



000
FTUS43 KDVN 221700
TAFCID
TAF
KCID 221730Z 2218/2318 12011KT 4SM -RA BR OVC025
     FM221900 10010KT 3SM -RA BR BKN007 OVC012
     FM230300 09012KT 1SM RA BR OVC004
     FM231400 21008KT 4SM BR SCT004 OVC009=



000
FTUS43 KDVN 221700
TAFDBQ
TAF
KDBQ 221730Z 2218/2318 12011KT 6SM BR VCSH OVC040
     FM222200 10010KT 4SM -RADZ BR SCT007 OVC012
     FM230300 09012KT 2SM RA BR OVC006
     FM231400 18010KT 4SM BR SCT006 OVC009=



000
FTUS43 KDVN 221700
TAFBRL
TAF
KBRL 221730Z 2218/2318 14011KT 3SM -RA BR OVC005
     FM230000 10010KT 1SM RA BR BKN004 OVC020
     FM231100 21009KT 4SM BR OVC009=



000
FTUS43 KDVN 221600 AAC
TAFMLI
TAF AMD
KMLI 221650Z 2217/2312 11011KT 3SM -RA BR BKN012 OVC040
     FM230200 10010KT 1SM RA BR BKN008 OVC020=



000
FTUS43 KDVN 221600 AAB
TAFDBQ
TAF AMD
KDBQ 221650Z 2217/2312 15010KT 5SM BR SCT012 OVC045
     FM221800 12011KT 5SM BR VCSH BKN012 OVC020
     FM222000 10010KT 4SM -RADZ BR BKN007 OVC012
     FM230300 09012KT 2SM RA BR OVC006=



000
FTUS43 KDVN 221600 AAC
TAFBRL
TAF AMD
KBRL 221650Z 2217/2312 14011KT 3SM -RA BR BKN009 OVC030
      TEMPO 2217/2220 2SM -RA BR BKN004
     FM230000 10010KT 1SM RA BR BKN009 OVC020=



000
FTUS43 KDVN 221500 AAB
TAFMLI
TAF AMD
KMLI 221557Z 2216/2312 14011KT P6SM VCSH OVC040
      TEMPO 2216/2218 5SM BR
     FM221800 14011KT 6SM -RA BR SCT020 OVC030
     FM230200 10010KT 3SM RA BR BKN012 OVC020=



000
FTUS43 KDVN 221500 AAB
TAFMLI
TAF AMD
KMLI 221557Z 2216/2312 14011KT P6SM VCSH OVC040
      TEMPO 2216/2218 5SM BR
     FM221800 14011KT 6SM -RA BR SCT020 OVC030
     FM230200 10010KT 3SM RA BR BKN012 OVC020=



000
FTUS43 KDVN 221500 AAA
TAFDBQ
TAF AMD
KDBQ 221556Z 2216/2312 15010KT 5SM BR SCT012 OVC045
     FM221800 12011KT P6SM VCSH BKN012 OVC020
     FM222000 10010KT 4SM -RADZ BR BKN007 OVC012
     FM230300 09012KT 2SM RA BR OVC006=



000
FTUS43 KDVN 221500 AAB
TAFBRL
TAF AMD
KBRL 221547Z 2216/2312 14011KT 3SM -RA BR BKN015 OVC030
      TEMPO 2216/2220 2SM -RA BR BKN008
     FM230000 10010KT 1SM RA BR BKN012 OVC020=



000
FTUS43 KDVN 221500 AAB
TAFBRL
TAF AMD
KBRL 221547Z 2216/2312 14011KT 3SM -RA BR BKN015 OVC030
      TEMPO 2216/2220 2SM -RA BR BKN008
     FM230000 10010KT 1SM RA BR BKN012 OVC020=



000
FTUS43 KDVN 221500 AAA
TAFBRL
TAF AMD
KBRL 221532Z 2216/2312 14011KT 3SM -RA BR BKN015 OVC030
     FM230000 10010KT 1SM RA BR BKN012 OVC020=



000
FTUS43 KDVN 221400 AAA
TAFMLI
TAF AMD
KMLI 221429Z 2214/2312 14011KT P6SM VCSH OVC040
      TEMPO 2214/2216 5SM BR
     FM221800 14011KT 6SM -RA BR SCT020 OVC030
     FM230200 10010KT 3SM RA BR BKN012 OVC020=



000
FTUS43 KDVN 221300 AAA
TAFCID
TAF AMD
KCID 221302Z 2213/2312 15010KT 6SM BR SCT012 OVC045
      TEMPO 2213/2217 5SM -RA BR OVC020
     FM221700 12011KT P6SM VCSH BKN009 OVC012
     FM222000 10010KT 5SM -RADZ BR BKN007 OVC012
     FM230300 09012KT 2SM RA BR OVC006=



000
FTUS43 KDVN 221300 AAA
TAFCID
TAF AMD
KCID 221302Z 2213/2312 15010KT 6SM BR SCT012 OVC045
      TEMPO 2213/2217 5SM -RA BR OVC020
     FM221700 12011KT P6SM VCSH BKN009 OVC012
     FM222000 10010KT 5SM -RADZ BR BKN007 OVC012
     FM230300 09012KT 2SM RA BR OVC006=



000
FTUS43 KDVN 221100
TAFDBQ
TAF
KDBQ 221120Z 2212/2312 15010KT 6SM BR SCT012 OVC045
      TEMPO 2214/2216 5SM -RA BR OVC015
     FM221600 12011KT P6SM VCSH BKN012 OVC020
     FM222000 10010KT 4SM -RADZ BR BKN007 OVC012
     FM230300 09012KT 2SM RA BR OVC006=



000
FTUS43 KDVN 221100
TAFBRL
TAF
KBRL 221120Z 2212/2312 14011KT P6SM VCSH OVC040
     FM221500 14011KT 6SM -RA BR SCT020 OVC030
     FM230000 10010KT 3SM RA BR BKN012 OVC020=



000
FTUS43 KDVN 221100
TAFMLI
TAF
KMLI 221120Z 2212/2312 14011KT P6SM VCSH OVC040
     FM221800 14011KT 6SM -RA BR SCT020 OVC030
     FM230200 10010KT 3SM RA BR BKN012 OVC020=



000
FTUS43 KDVN 221100
TAFCID
TAF
KCID 221120Z 2212/2312 15010KT 6SM BR SCT012 OVC045
      TEMPO 2214/2218 5SM -RA BR OVC015
     FM221800 12011KT P6SM VCSH BKN007 OVC012
     FM222000 10010KT 5SM -RADZ BR BKN007 OVC012
     FM230300 09012KT 2SM RA BR OVC006=



000
FTUS43 KDVN 221000 AAB
TAFCID
TAF AMD
KCID 221002Z 2210/2306 16012KT 6SM BR SCT012 OVC045
      TEMPO 2210/2214 5SM -RA BR OVC015
     FM221400 14011KT P6SM VCSH BKN007 OVC012
     FM221600 10010KT 4SM -RADZ BR BKN007 OVC012=



000
FTUS43 KDVN 220700 AAA
TAFBRL
TAF AMD
KBRL 220733Z 2208/2306 16009KT P6SM VCSH SCT025 OVC040
     FM221000 14011KT P6SM VCSH BKN020 OVC035
     FM221300 10010KT 2SM -RADZ BR BKN009 OVC015=



000
FTUS43 KDVN 220700 AAA
TAFBRL
TAF AMD
KBRL 220733Z 2208/2306 16009KT P6SM VCSH SCT025 OVC040
     FM221000 14011KT P6SM VCSH BKN020 OVC035
     FM221300 10010KT 2SM -RADZ BR BKN009 OVC015=



000
FTUS43 KDVN 220700 AAA
TAFMLI
TAF AMD
KMLI 220732Z 2208/2306 15011KT P6SM OVC040
     FM221000 14011KT P6SM VCSH SCT020 OVC035
     FM221300 10010KT 3SM -RADZ BR BKN012 OVC020=



000
FTUS43 KDVN 220700 AAA
TAFDBQ
TAF AMD
KDBQ 220732Z 2208/2306 16012KT 5SM BR SCT015 OVC050
      TEMPO 2208/2212 6SM -RADZ BR OVC015
     FM221200 14011KT P6SM VCSH OVC015
     FM221400 10010KT 1 1/2SM -RADZ BR BKN007 OVC012=



000
FTUS43 KDVN 220700 AAA
TAFDBQ
TAF AMD
KDBQ 220732Z 2208/2306 16012KT 5SM BR SCT015 OVC050
      TEMPO 2208/2212 6SM -RADZ BR OVC015
     FM221200 14011KT P6SM VCSH OVC015
     FM221400 10010KT 1 1/2SM -RADZ BR BKN007 OVC012=



000
FTUS43 KDVN 220700 AAA
TAFMLI
TAF AMD
KMLI 220732Z 2208/2306 15011KT P6SM OVC040
     FM221000 14011KT P6SM VCSH SCT020 OVC035
     FM221300 10010KT 3SM -RADZ BR BKN012 OVC020=



000
FTUS43 KDVN 220700 AAA
TAFCID
TAF AMD
KCID 220718Z 2207/2306 16012KT 6SM BR SCT012 OVC045
      TEMPO 2207/2210 5SM -RADZ BR OVC012
     FM221000 14011KT P6SM VCSH BKN007 OVC012
     FM221300 10010KT 4SM -RADZ BR BKN007 OVC012=



000
FTUS43 KDVN 220700 AAA
TAFCID
TAF AMD
KCID 220718Z 2207/2306 16012KT 6SM BR SCT012 OVC045
      TEMPO 2207/2210 5SM -RADZ BR OVC012
     FM221000 14011KT P6SM VCSH BKN007 OVC012
     FM221300 10010KT 4SM -RADZ BR BKN007 OVC012=



000
FTUS43 KDVN 220500
TAFMLI
TAF
KMLI 220525Z 2206/2306 15011KT P6SM OVC040
      TEMPO 2206/2210 5SM -RA BR BKN025 OVC035
     FM221000 14011KT P6SM VCSH BKN020 OVC035
     FM221300 10010KT 3SM -RADZ BR BKN012 OVC020=



000
FTUS43 KDVN 220500
TAFBRL
TAF
KBRL 220525Z 2206/2306 16011KT P6SM SCT025 OVC040
      TEMPO 2206/2210 5SM -RA BR BKN025 OVC035
     FM221000 14011KT P6SM VCSH BKN020 OVC035
     FM221300 10010KT 2SM -RADZ BR BKN009 OVC015=



000
FTUS43 KDVN 220500
TAFCID
TAF
KCID 220525Z 2206/2306 16012KT 5SM BR BKN012 OVC035
      TEMPO 2206/2210 3SM -RADZ BR BKN007 OVC012
     FM221000 14011KT P6SM VCSH BKN007 OVC012
     FM221300 10010KT 2SM -RADZ BR BKN007 OVC012=



000
FTUS43 KDVN 220500
TAFDBQ
TAF
KDBQ 220525Z 2206/2306 16012KT 5SM BR SCT010 OVC015
      TEMPO 2206/2210 2SM -RADZ BR BKN007 OVC012
     FM221000 14011KT P6SM VCSH BKN007 OVC012
     FM221400 10010KT 1 1/2SM -RADZ BR BKN007 OVC012=



000
FTUS43 KDVN 220400 AAA
TAFDBQ
TAF AMD
KDBQ 220447Z 2205/2224 16015KT 5SM BR SCT010 OVC025
      TEMPO 2205/2209 3SM -RADZ BKN010 OVC025
     FM220900 15012KT P6SM BKN020 OVC035
     FM221200 14012KT 2SM -RADZ BR BKN007 OVC015=



000
FTUS43 KDVN 220400 AAB
TAFCID
TAF AMD
KCID 220445Z 2205/2224 16012KT P6SM BKN012 OVC035
      TEMPO 2205/2209 5SM -RA BR SCT012 OVC035
     FM220900 15010KT P6SM SCT020 OVC035
     FM221200 14012KT 2SM -RADZ BR BKN007 OVC015=



000
FTUS43 KDVN 220200 AAA
TAFMLI
TAF AMD
KMLI 220209Z 2202/2224 15011KT P6SM OVC040
      TEMPO 2202/2204 5SM -RA BR BKN025 OVC035
     FM221200 14012KT 2SM -RADZ BR BKN012 OVC020=



000
FTUS43 KDVN 220200 AAA
TAFMLI
TAF AMD
KMLI 220209Z 2202/2224 15011KT P6SM OVC040
      TEMPO 2202/2204 5SM -RA BR BKN025 OVC035
     FM221200 14012KT 2SM -RADZ BR BKN012 OVC020=



000
FTUS43 KDVN 220100 AAA
TAFCID
TAF AMD
KCID 220112Z 2201/2224 16012KT P6SM BKN015 OVC035
      TEMPO 2201/2204 5SM -RA BR SCT015 OVC035
     FM220400 15010KT P6SM SCT020 OVC035
     FM221200 14012KT 2SM -RADZ BR BKN007 OVC015=



000
FTUS43 KDVN 220100 AAA
TAFCID
TAF AMD
KCID 220112Z 2201/2224 16012KT P6SM BKN015 OVC035
      TEMPO 2201/2204 5SM -RA BR SCT015 OVC035
     FM220400 15010KT P6SM SCT020 OVC035
     FM221200 14012KT 2SM -RADZ BR BKN007 OVC015=



000
FTUS43 KDVN 212300 RRA
TAFBRL
TAF
KBRL 212346Z 2200/2224 16011KT P6SM BKN025 OVC040
      TEMPO 2200/2204 OVC035
     FM220400 15010KT P6SM SCT020 OVC035
     FM221200 14012KT 2SM -RADZ BR BKN009 OVC020=



000
FTUS43 KDVN 212300 RRA
TAFMLI
TAF
KMLI 212346Z 2200/2224 15011KT P6SM OVC040
     FM221200 14012KT 2SM -RADZ BR BKN012 OVC020=



000
FTUS43 KDVN 212300 RRA
TAFDBQ
TAF
KDBQ 212346Z 2200/2224 16015KT P6SM BKN015 OVC035
      TEMPO 2200/2204 OVC035
     FM220400 15010KT P6SM BKN020 OVC035
     FM221200 14012KT 2SM -RADZ BR BKN007 OVC015=



000
FTUS43 KDVN 212300 RRA
TAFCID
TAF
KCID 212346Z 2200/2224 16012KT P6SM BKN015 OVC035
      TEMPO 2200/2204 OVC035
     FM220400 15010KT P6SM SCT020 OVC035
     FM221200 14012KT 2SM -RADZ BR BKN007 OVC015=



000
FTUS43 KDVN 212100 AAA
TAFDBQ
TAF AMD
KDBQ 212124Z 2121/2218 18014KT 5SM BR BKN010 OVC025
     FM212300 16013KT 3SM -DZ BR OVC007
     FM220700 15013KT 3SM -RADZ BR OVC005
     FM221300 13012KT 2SM -RASN BR OVC004=



000
FTUS43 KDVN 212100 AAA
TAFCID
TAF AMD
KCID 212123Z 2121/2218 17014KT 5SM BR OVC015
     FM212200 15012KT 3SM -DZ BR OVC008
     FM220600 14012KT 3SM -RADZ BR OVC005
     FM221100 13012KT 2SM -RA BR OVC004=



000
FTUS43 KDVN 211700
TAFDBQ
TAF
KDBQ 211732Z 2118/2218 18014KT 5SM -DZ BR BKN010 OVC025
     FM212300 16013KT 3SM -DZ BR OVC007
     FM220700 15013KT 3SM -RADZ BR OVC004
     FM221500 13012KT 2SM -RASN BR OVC004=



000
FTUS43 KDVN 211700
TAFBRL
TAF
KBRL 211732Z 2118/2218 17012KT P6SM OVC020
     FM220100 16011KT 5SM -DZ BR OVC008
     FM220700 15011KT 3SM -RADZ BR OVC004
     FM221200 14012KT 2SM -RA BR OVC004=



000
FTUS43 KDVN 211700
TAFMLI
TAF
KMLI 211732Z 2118/2218 16012KT P6SM OVC020
     FM220100 16011KT 5SM -DZ BR OVC008
     FM220800 14010KT 3SM -RADZ BR OVC004
     FM221300 12012KT 2SM -RA BR OVC004=



000
FTUS43 KDVN 211700
TAFCID
TAF
KCID 211732Z 2118/2218 17014KT 5SM BR OVC015
     FM212200 15012KT 3SM -DZ BR OVC008
     FM220600 14012KT 3SM -RADZ BR OVC004
     FM221100 13012KT 2SM -RASN BR OVC004=



000
FTUS43 KDVN 211100
TAFBRL
TAF
KBRL 211130Z 2112/2212 16008KT 6SM BR OVC025
      TEMPO 2112/2115 5SM -DZ BR OVC015
     FM211600 17012KT P6SM OVC010
     FM220100 15011KT 5SM BR OVC008=



000
FTUS43 KDVN 211100
TAFCID
TAF
KCID 211130Z 2112/2212 16010KT 5SM BR OVC015
      TEMPO 2112/2114 2SM -DZ BR OVC008
     FM211600 17014KT P6SM OVC010
     FM220000 16013KT 5SM BR VCSH OVC008
     FM220800 15012KT 3SM -RA BR OVC004=



000
FTUS43 KDVN 211100
TAFDBQ
TAF
KDBQ 211130Z 2112/2212 16012KT 3SM BR OVC006
      TEMPO 2112/2115 1SM -DZ BR OVC002
     FM211800 17013KT P6SM OVC010
     FM212200 18013KT 5SM BR OVC008
     FM220600 15012KT 3SM -DZ BR OVC004=



000
FTUS43 KDVN 211100
TAFMLI
TAF
KMLI 211130Z 2112/2212 16008KT 6SM BR OVC025
      TEMPO 2112/2115 4SM -DZ BR OVC015
     FM211600 18013KT P6SM OVC010
     FM220100 16011KT 5SM BR OVC008=



000
FTUS43 KDVN 211000 AAB
TAFBRL
TAF AMD
KBRL 211007Z 2110/2206 18007KT 5SM -DZ BR OVC025
     FM211300 18009KT 5SM BR OVC015
     FM211500 18011KT 6SM BR OVC009
     FM211800 18012G19KT P6SM OVC015=



000
FTUS43 KDVN 211000 AAB
TAFBRL
TAF AMD
KBRL 211007Z 2110/2206 18007KT 5SM -DZ BR OVC025
     FM211300 18009KT 5SM BR OVC015
     FM211500 18011KT 6SM BR OVC009
     FM211800 18012G19KT P6SM OVC015=



000
FTUS43 KDVN 210900 AAB
TAFDBQ
TAF AMD
KDBQ 210946Z 2110/2206 17010KT 1SM -DZ BR OVC004
      TEMPO 2110/2113 1/2SM FG VV002
     FM211500 17013KT 3SM BR OVC007
     FM211800 18015G22KT 5SM BR OVC015=



000
FTUS43 KDVN 210900 AAB
TAFDBQ
TAF AMD
KDBQ 210946Z 2110/2206 17010KT 1SM -DZ BR OVC004
      TEMPO 2110/2113 1/2SM FG VV002
     FM211500 17013KT 3SM BR OVC007
     FM211800 18015G22KT 5SM BR OVC015=



000
FTUS43 KDVN 210900 AAA
TAFCID
TAF AMD
KCID 210943Z 2110/2206 16009KT 3SM BR OVC004
      TEMPO 2110/2112 1SM -DZ BR OVC002
     FM211400 17011KT 4SM BR OVC008
     FM211600 17014KT 6SM BR OVC010
     FM211800 16015G22KT 5SM BR OVC015=



000
FTUS43 KDVN 210800 AAA
TAFDBQ
TAF AMD
KDBQ 210834Z 2109/2206 18009KT 1SM -FZDZ BR OVC004
      TEMPO 2109/2112 1/2SM FG VV002
     FM211500 17013KT 3SM BR OVC007
     FM211800 18015G22KT 5SM BR OVC015=



000
FTUS43 KDVN 210700 AAA
TAFMLI
TAF AMD
KMLI 210750Z 2108/2206 17008KT 4SM -DZ BR OVC015
     FM211400 18011KT 3SM BR OVC008
     FM211800 18013G20KT 6SM BR OVC015=



000
FTUS43 KDVN 210700 AAA
TAFBRL
TAF AMD
KBRL 210748Z 2108/2206 17007KT 5SM -DZ BR OVC025
     FM211000 18008KT 3SM BR OVC015
     FM211500 18011KT 5SM BR OVC009
     FM211800 18012G19KT 6SM BR OVC015=



000
FTUS43 KDVN 210500
TAFBRL
TAF
KBRL 210537Z 2106/2206 17006KT 4SM -DZ BR OVC012
      TEMPO 2106/2108 2SM -DZ BR OVC007
     FM210800 17007KT 2SM BR OVC004
     FM211500 18011KT 5SM BR OVC009
     FM211800 18012G19KT 6SM BR OVC015=



000
FTUS43 KDVN 210500
TAFCID
TAF
KCID 210537Z 2106/2206 16006KT 1/4SM -DZ FG OVC002
     FM211400 16011KT 3/4SM BR OVC004
     FM211600 17014KT 2SM BR OVC008
     FM211800 16015G22KT 5SM BR OVC015=



000
FTUS43 KDVN 210500
TAFMLI
TAF
KMLI 210537Z 2106/2206 16007KT 3SM -DZ BR OVC015
      TEMPO 2106/2108 2SM -DZ BR OVC007
     FM210800 16007KT 1 1/2SM -DZ BR OVC004
     FM211500 17011KT 3SM BR OVC008
     FM211800 18013G20KT 6SM BR OVC015=



000
FTUS43 KDVN 210500
TAFDBQ
TAF
KDBQ 210537Z 2106/2206 16009KT 2SM -FZDZ BR OVC004
      TEMPO 2108/2112 1SM BR OVC002
     FM211500 17013KT 3SM BR OVC007
     FM211800 18015G22KT 5SM BR OVC015=



000
FTUS43 KDVN 210400 AAA
TAFCID
TAF AMD
KCID 210459Z 2105/2124 16006KT 1/2SM -DZ FG OVC002
     FM211300 16011KT 1SM BR OVC004
     FM211600 17014KT 2SM BR OVC008=



000
FTUS43 KDVN 210400 AAA
TAFCID
TAF AMD
KCID 210459Z 2105/2124 16006KT 1/2SM -DZ FG OVC002
     FM211300 16011KT 1SM BR OVC004
     FM211600 17014KT 2SM BR OVC008=



000
FTUS43 KDVN 210400 AAA
TAFBRL
TAF AMD
KBRL 210435Z 2105/2124 17006KT 4SM -DZ BR OVC012
      TEMPO 2105/2108 2SM -DZ BR OVC007
     FM210800 17007KT 2SM BR OVC004
     FM211500 18012KT 5SM BR OVC009=



000
FTUS43 KDVN 210400 AAA
TAFBRL
TAF AMD
KBRL 210435Z 2105/2124 17006KT 4SM -DZ BR OVC012
      TEMPO 2105/2108 2SM -DZ BR OVC007
     FM210800 17007KT 2SM BR OVC004
     FM211500 18012KT 5SM BR OVC009=



000
FTUS43 KDVN 210400 AAA
TAFMLI
TAF AMD
KMLI 210421Z 2104/2124 16007KT 3SM -DZ BR OVC015
      TEMPO 2104/2108 2SM -DZ BR OVC007
     FM210800 16007KT 1 1/2SM -DZ BR OVC004
     FM211500 17011KT 3SM BR OVC006=



000
FTUS43 KDVN 210400 AAA
TAFMLI
TAF AMD
KMLI 210421Z 2104/2124 16007KT 3SM -DZ BR OVC015
      TEMPO 2104/2108 2SM -DZ BR OVC007
     FM210800 16007KT 1 1/2SM -DZ BR OVC004
     FM211500 17011KT 3SM BR OVC006=



000
FTUS43 KDVN 210300 AAA
TAFDBQ
TAF AMD
KDBQ 210311Z 2103/2124 17007KT 2SM BR OVC005
      TEMPO 2103/2105 1SM -FZDZ BR OVC003
     FM210500 17008KT 1 1/2SM -FZDZ BR OVC003
     FM211200 17008KT 2SM BR OVC004
     FM211500 17013KT 3SM BR OVC007=



000
FTUS43 KDVN 202300
TAFCID
TAF
KCID 202339Z 2100/2124 14005KT 3/4SM BR OVC003
      TEMPO 2101/2105 1/2SM -FZDZ FG OVC002
     FM210500 16008KT 1 1/2SM -DZ BR OVC004
     FM211500 17012KT 4SM BR OVC012=



000
FTUS43 KDVN 202300
TAFBRL
TAF
KBRL 202339Z 2100/2124 14005KT 4SM -DZ BR OVC008
     FM210300 18006KT 2SM -DZ BR OVC004
     FM210900 17007KT 3SM BR OVC006
     FM211500 18012KT 5SM BR OVC012=



000
FTUS43 KDVN 202300
TAFDBQ
TAF
KDBQ 202339Z 2100/2124 16007KT 4SM BR OVC010
      TEMPO 2100/2104 2SM -FZDZ BR OVC008
     FM210400 17008KT 2SM -FZDZ BR OVC005
     FM211500 17014KT 4SM BR OVC008=



000
FTUS43 KDVN 202300
TAFMLI
TAF
KMLI 202339Z 2100/2124 14004KT 5SM -DZ HZ OVC012
      TEMPO 2102/2104 2SM -FZDZ BR OVC007
     FM210400 17006KT 3SM -DZ BR OVC007
     FM211500 16011KT 5SM BR OVC015=



000
FTUS43 KDVN 202100 AAA
TAFCID
TAF AMD
KCID 202130Z 2022/2118 16005KT 1SM BR OVC006
      TEMPO 2022/2024 2SM BR OVC004
     FM210100 17006KT 2SM BR VCSH OVC004=



000
FTUS43 KDVN 202000 AAA
TAFBRL
TAF AMD
KBRL 202011Z 2020/2118 15005KT 5SM HZ VCSH OVC010
      TEMPO 2020/2023 3SM -SN BR OVC008
     FM210200 16005KT 4SM BR VCSH OVC012=



000
FTUS43 KDVN 202000 AAB
TAFMLI
TAF AMD
KMLI 202010Z 2020/2118 15005KT 5SM HZ OVC020
      TEMPO 2020/2024 4SM BR OVC015
     FM210200 16005KT 4SM BR VCSH OVC012=



000
FTUS43 KDVN 202000 AAB
TAFDBQ
TAF AMD
KDBQ 202009Z 2020/2118 15008KT 5SM BR OVC012
      TEMPO 2020/2024 3SM BR OVC008
     FM210200 16006KT 2SM BR VCSH OVC007=



000
FTUS43 KDVN 201900 AAA
TAFMLI
TAF AMD
KMLI 201955Z 2020/2118 15006KT 6SM HZ OVC020
      TEMPO 2020/2023 4SM BR OVC015
     FM210200 16005KT 4SM BR OVC012=



000
FTUS43 KDVN 201900 AAA
TAFDBQ
TAF AMD
KDBQ 201954Z 2020/2118 15008KT 5SM BR OVC012
     FM210200 16006KT 3SM BR OVC009=



000
FTUS43 KDVN 201700 CCA
TAFCID
TAF COR
KCID 201735Z 2018/2118 16006KT 2SM BR OVC006
      TEMPO 2018/2021 1SM BR OVC004=



000
FTUS43 KDVN 201700
TAFBRL
TAF
KBRL 201730Z 2018/2118 15005KT 5SM HZ VCSH OVC010
      TEMPO 2018/2021 3SM BR OVC008
     FM210200 16005KT 4SM BR OVC012=



000
FTUS43 KDVN 201700
TAFMLI
TAF
KMLI 201730Z 2018/2118 15006KT 5SM HZ OVC025
     FM210200 16005KT 4SM BR OVC012=



000
FTUS43 KDVN 201700
TAFDBQ
TAF
KDBQ 201730Z 2018/2118 14008KT 5SM BR OVC025
     FM210200 16006KT 3SM BR OVC009=



000
FTUS43 KDVN 201700
TAFCID
TAF
KCID 201730Z 2018/2118 16006KT 2SM BR OVC006=



000
FTUS43 KDVN 201700 AAB
TAFBRL
TAF AMD
KBRL 201707Z 2017/2112 15005KT 5SM BR VCSH OVC010
      TEMPO 2017/2020 3SM BR OVC008
     FM210200 16005KT 6SM BR OVC008=



000
FTUS43 KDVN 201700 AAB
TAFMLI
TAF AMD
KMLI 201705Z 2017/2112 14005KT 6SM HZ OVC025
      TEMPO 2017/2020 5SM HZ OVC015
     FM202000 16005KT P6SM OVC015
     FM210200 16005KT 6SM BR OVC008=



000
FTUS43 KDVN 201700 AAB
TAFDBQ
TAF AMD
KDBQ 201703Z 2017/2112 14005KT 5SM BR OVC025
      TEMPO 2017/2019 4SM BR OVC015
     FM201900 16007KT 6SM BR OVC012
     FM210100 16006KT 5SM BR OVC006
     FM210600 16006KT 3SM -FZDZ BR OVC005=



000
FTUS43 KDVN 201500 AAB
TAFCID
TAF AMD
KCID 201528Z 2015/2112 14005KT 3SM BR VCSH OVC006
      TEMPO 2015/2017 1 1/2SM BR OVC003
     FM201800 17006KT 5SM HZ OVC009
     FM210000 14005KT 4SM BR OVC008
     FM210600 16006KT 3SM -FZDZ BR OVC005=



000
FTUS43 KDVN 201500 AAA
TAFDBQ
TAF AMD
KDBQ 201522Z 2015/2112 14005KT 5SM BR OVC025
      TEMPO 2015/2017 4SM BR OVC015
     FM201700 16007KT 6SM BR OVC008
     FM210100 16006KT 5SM BR OVC006
     FM210600 16006KT 3SM -FZDZ BR OVC005=



000
FTUS43 KDVN 201500 AAA
TAFMLI
TAF AMD
KMLI 201520Z 2015/2112 12005KT 6SM HZ OVC025
      TEMPO 2015/2017 OVC035
     FM201700 16005KT P6SM OVC015
     FM210200 16005KT 6SM BR OVC008=



000
FTUS43 KDVN 201300 AAA
TAFBRL
TAF AMD
KBRL 201345Z 2014/2112 15005KT 5SM BR VCSH OVC008
     FM201600 16006KT 6SM BR OVC008
     FM201900 15006KT P6SM OVC015
     FM210200 16005KT 6SM BR OVC008=



000
FTUS43 KDVN 201300 AAA
TAFCID
TAF AMD
KCID 201342Z 2014/2112 14005KT 6SM BR VCSH OVC008
     FM201500 16007KT 5SM BR OVC007
     FM201800 17006KT P6SM OVC012
     FM210000 14005KT 4SM BR OVC008
     FM210600 16006KT 3SM -FZDZ BR OVC005=



000
FTUS43 KDVN 201100
TAFMLI
TAF
KMLI 201130Z 2012/2112 12005KT P6SM OVC025
     FM201400 14005KT 6SM BR VCSH OVC015
     FM201600 16005KT 6SM BR OVC008
     FM201900 15007KT P6SM OVC015
     FM210200 16005KT 6SM BR OVC008=



000
FTUS43 KDVN 201100
TAFBRL
TAF
KBRL 201130Z 2012/2112 15004KT P6SM OVC020
      TEMPO 2012/2014 5SM BR OVC012
     FM201400 16005KT 5SM -FZDZSN BR OVC008
     FM201600 16006KT 6SM BR OVC008
     FM201900 15006KT P6SM OVC015
     FM210200 16005KT 6SM BR OVC008=



000
FTUS43 KDVN 201100
TAFCID
TAF
KCID 201130Z 2012/2112 14006KT 5SM BR OVC012
      TEMPO 2012/2015 4SM -FZDZSN BR OVC007
     FM201500 16007KT 4SM BR OVC008
     FM201800 17006KT P6SM OVC012
     FM210000 14005KT 4SM BR OVC008
     FM210600 16006KT 3SM -FZDZ BR OVC005=



000
FTUS43 KDVN 201100
TAFDBQ
TAF
KDBQ 201130Z 2012/2112 14006KT 5SM BR OVC025
     FM201400 15006KT 5SM -FZDZSN BR OVC015
     FM201700 16007KT 6SM BR OVC008
     FM210100 16006KT 5SM BR OVC006
     FM210600 16006KT 3SM -FZDZ BR OVC005=



000
FTUS43 KDVN 200600 AAA
TAFDBQ
TAF AMD
KDBQ 200656Z 2007/2106 18007KT 6SM BR OVC025
     FM201400 17006KT 6SM BR OVC015
     FM201800 17006KT P6SM OVC020
     FM210100 17007KT 6SM BR OVC015=



000
FTUS43 KDVN 200500
TAFDBQ
TAF
KDBQ 200520Z 2006/2106 16006KT P6SM OVC050
     FM201000 15005KT 6SM BR OVC025
     FM201400 17006KT 6SM BR OVC015
     FM201800 17006KT P6SM OVC020
     FM210100 17007KT 6SM BR OVC015=



000
FTUS43 KDVN 200500
TAFBRL
TAF
KBRL 200520Z 2006/2106 18005KT P6SM OVC030
     FM200800 16004KT P6SM OVC025
     FM201200 17005KT 6SM BR OVC009
     FM201700 18005KT P6SM OVC016
     FM210100 18005KT 4SM BR OVC010=



000
FTUS43 KDVN 200500
TAFCID
TAF
KCID 200520Z 2006/2106 15004KT P6SM OVC023
     FM200800 15004KT 6SM BR OVC018
     FM201100 16005KT 4SM BR OVC009
     FM201700 17006KT P6SM OVC015=



000
FTUS43 KDVN 200500
TAFMLI
TAF
KMLI 200520Z 2006/2106 11003KT P6SM BKN040 OVC050
     FM200700 13004KT P6SM OVC025
     FM201300 16005KT 6SM BR OVC019
     FM201900 17005KT P6SM OVC025
     FM210100 18006KT 6SM BR OVC015=



000
FTUS43 KDVN 200300 AAA
TAFBRL
TAF AMD
KBRL 200302Z 2003/2024 15004KT P6SM SCT030 OVC050
     FM200500 13003KT 6SM BR OVC025
     FM201100 16005KT 4SM BR OVC015
     FM201800 18005KT P6SM OVC020=



000
FTUS43 KDVN 200300 AAB
TAFCID
TAF AMD
KCID 200302Z 2003/2024 16005KT P6SM OVC023
     FM200800 16004KT 6SM BR OVC020
     FM201100 17005KT 4SM BR OVC015
     FM202000 16006KT 6SM BR OVC025=



000
FTUS43 KDVN 200200 AAA
TAFCID
TAF AMD
KCID 200208Z 2002/2024 14005KT P6SM SCT025 OVC050
     FM200800 16004KT P6SM OVC025
     FM201100 17005KT 4SM BR OVC015
     FM202000 16006KT 6SM BR OVC025=



000
FTUS43 KDVN 200200 AAA
TAFMLI
TAF AMD
KMLI 200207Z 2002/2024 10006KT P6SM OVC060
     FM200800 15005KT P6SM OVC025
     FM201400 16005KT 5SM BR OVC020
     FM202100 16005KT P6SM OVC025=



000
FTUS43 KDVN 192300
TAFCID
TAF
KCID 192325Z 2000/2024 16005KT P6SM SCT025 OVC040
     FM200300 16004KT P6SM OVC025
     FM201100 17005KT 4SM BR OVC015
     FM202000 16006KT 6SM BR OVC025=



000
FTUS43 KDVN 192300
TAFBRL
TAF
KBRL 192325Z 2000/2024 VRB02KT P6SM OVC050
     FM200400 13003KT 6SM BR OVC025
     FM201100 16005KT 4SM BR OVC015
     FM201800 18005KT P6SM OVC020=



000
FTUS43 KDVN 192300
TAFDBQ
TAF
KDBQ 192325Z 2000/2024 20006KT P6SM BKN035 OVC050
     FM200700 14003KT P6SM OVC025
     FM201000 15005KT 6SM BR OVC020
     FM202100 18007KT P6SM OVC025=



000
FTUS43 KDVN 192300
TAFMLI
TAF
KMLI 192325Z 2000/2024 06005KT P6SM SCT050 BKN150
     FM200200 VRB05KT P6SM OVC025
     FM201400 16005KT 5SM BR OVC020
     FM202100 16005KT P6SM OVC025=



000
FTUS43 KDVN 192200 AAA
TAFBRL
TAF AMD
KBRL 192234Z 1923/2018 VRB02KT P6SM BKN030 OVC060
     FM200400 15003KT 5SM BR OVC025
     FM201100 15005KT 2SM BR OVC009=



000
FTUS43 KDVN 192200 AAB
TAFCID
TAF AMD
KCID 192230Z 1923/2018 17006KT P6SM SCT025 OVC050
      TEMPO 2000/2003 BKN025
     FM200300 16005KT 4SM BR OVC015
     FM200700 15005KT 2SM BR OVC005=



    US Dept of Commerce
    National Oceanic and Atmospheric Administration
    National Weather Service
    1325 East West Highway
    Silver Spring, MD 20910
    Page Author: NWS Internet Services Team
Disclaimer
Information Quality
Credits
Glossary
Privacy Policy
Freedom of Information Act (FOIA)
About Us
Career Opportunities